Etusivu
METAR-TAF:

METAR-TAF

Lentoasemat :

Brainerd, Minnesota, Yhdysvallat

Leveyspiiri: 46-24-17N, Pituuspiiri: 094-07-51W, korkeus merenpinnasta: 373 m

Tämänhetkinen sää

Tämä raportti tehtiin 12 minuuttia sitten, kello 09.53 UTC
tyyntä
Lämpötila -22°C
Kosteus 70%
Ilmanpaine 1034 hPa
Näkyvyys: 14.5 km
selkeää

METAR: KBRD 190953Z AUTO 00000KT 9SM CLR M22/M26 A3054 RMK AO2 SLP375 T12171256

Aika: 04:05 (10:05 UTC)

Sääennuste

Tämä raportti tehtiin 4 tuntia ja 35 minuuttia sitten, kello 05.30 UTC
Ennuste voimassa 19. päivästä klo 06 UTC - 20. päivään klo 06 UTC
Tuuli 5 kn lännestä/luoteesta
Näkyvyys: 10 km
selkeää

TAF: KBRD 190530Z 1906/2006 29005KT P6SM SKC

Säähavainnot ja -ennusteet yli 4000 lentoasemalta (METAR- ja TAF-raportit).

Käytössä olevat sääasemat on merkitty karttaan keltaisilla ja punaisilla pisteillä.

Aseta hiiri pisteen päälle nähdäksesi sääaseman nimen.

Klikkaa sitten nähdäksesi säähavainnot ja -ennusteet.

Kartan vaihtaminen: klikkaa mustalla rastilla varustettuja vihreitä pisteitä, niin voit zoomata sisään; viivalla varustettua vihreää pistettä, niin voit zoomata ulos tai vihreitä nuolia, niin pääset viereisille kartoille.


METAR-TAF: